WetterOnline ( http://www.wetteronline.de )

Wetter aktuell Göttingen

Aktuelles Wetter: Göttingen (171m)

6-stündlich | Neueste Meldungen
Ortszeit Temperatur Wetter
Di, 19.02. 19:00 7.7° C bedeckt
Di, 19.02. 13:00 9.0° C wolkig
Di, 19.02. 7:00 3.7° C bewölkt
Di, 19.02. 1:00 4.5° C wolkig
Mo, 18.02. 19:00 7.4° C wolkig
Mo, 18.02. 13:00 13.9° C wolkenlos
Mo, 18.02. 7:00 -1.1° C wolkenlos
Mo, 18.02. 1:00 1.0° C wolkig
Ortszeit Temperatur Wetter
Di, 19.02. 19:30 7.9° C bedeckt
Di, 19.02. 19:20 7.9° C bedeckt
Di, 19.02. 19:10 7.9° C bedeckt
Di, 19.02. 19:00 7.7° C bedeckt
Di, 19.02. 18:50 7.7° C bedeckt
Di, 19.02. 18:40 7.9° C bedeckt
Di, 19.02. 18:30 8.0° C bewölkt
Di, 19.02. 18:00 8.5° C bewölkt
Di, 19.02. 17:30 8.6° C bewölkt
Di, 19.02. 17:00 8.8° C wolkig
Di, 19.02. 16:30 9.8° C leicht bewölkt
Ortszeit Relative Feuchte Sichtweite
Di, 19.02. 19:00 65% 27 km
Di, 19.02. 13:00 65% 13 km
Di, 19.02. 7:00 78% 21 km
Di, 19.02. 1:00 72% 19 km
Mo, 18.02. 19:00 68% 19 km
Mo, 18.02. 13:00 45% 16 km
Mo, 18.02. 7:00 93% 8 km
Mo, 18.02. 1:00 88% 12 km
Ortszeit Relative Feuchte Sichtweite
Di, 19.02. 19:30 63% 30 km
Di, 19.02. 19:20 63% -
Di, 19.02. 19:10 63% -
Di, 19.02. 19:00 65% 27 km
Di, 19.02. 18:50 65% -
Di, 19.02. 18:40 63% -
Di, 19.02. 18:30 62% 30 km
Di, 19.02. 18:00 59% 28 km
Di, 19.02. 17:30 61% 29 km
Di, 19.02. 17:00 60% 30 km
Di, 19.02. 16:30 58% 29 km
Ortszeit Niederschlagsmenge Niederschlagsart
Di, 19.02. 19:00 0.1 l/m2 in 12 Std. -
Di, 19.02. 13:00 0.1 l/m2 in 6 Std. Regen
Di, 19.02. 7:00 0.0 l/m2 in 12 Std. -
Di, 19.02. 1:00 0.0 l/m2 in 6 Std. -
Mo, 18.02. 19:00 0.0 l/m2 in 12 Std. -
Mo, 18.02. 13:00 0.0 l/m2 in 6 Std. -
Mo, 18.02. 7:00 0.0 l/m2 in 12 Std. -
Mo, 18.02. 1:00 0.0 l/m2 in 6 Std. -
Ortszeit Niederschlagsmenge Niederschlagsart
Di, 19.02. 19:30 0.0 l/m2 in 1 Std. -
Di, 19.02. 19:20 keine Meldung -
Di, 19.02. 19:10 keine Meldung -
Di, 19.02. 19:00 0.0 l/m2 in 1 Std. -
Di, 19.02. 18:50 keine Meldung -
Di, 19.02. 18:40 keine Meldung -
Di, 19.02. 18:30 0.0 l/m2 in 1 Std. -
Di, 19.02. 18:00 0.0 l/m2 in 1 Std. -
Di, 19.02. 17:30 0.0 l/m2 in 1 Std. -
Di, 19.02. 17:00 0.0 l/m2 in 1 Std. -
Di, 19.02. 16:30 0.0 l/m2 in 1 Std. -
Ortszeit Stärke Spitze Richtung
km/h Bft. km/h Grad Sektor
Di, 19.02. 19:00 11 2 36 280° W
Di, 19.02. 13:00 20 4 31 240° SW
Di, 19.02. 7:00 4 1 11 170° S
Di, 19.02. 1:00 7 2 13 150° SO
Mo, 18.02. 19:00 11 2 22 130° SO
Mo, 18.02. 13:00 4 1 11 170° S
Mo, 18.02. 7:00 0 0 11 - -
Mo, 18.02. 1:00 4 1 14 310° NW
Ortszeit Stärke Spitze Richtung
km/h Bft. km/h Grad Sektor
Di, 19.02. 19:30 14 3 22 270° W
Di, 19.02. 19:20 14 3 - 270° W
Di, 19.02. 19:10 15 3 - 280° W
Di, 19.02. 19:00 11 2 25 280° W
Di, 19.02. 18:50 11 2 - 280° W
Di, 19.02. 18:40 14 3 - 280° W
Di, 19.02. 18:30 15 3 24 280° W
Di, 19.02. 18:00 20 4 33 290° W
Di, 19.02. 17:30 19 3 30 300° NW
Di, 19.02. 17:00 18 3 36 290° W
Di, 19.02. 16:30 22 4 36 280° W
Ortszeit Untergrenze Bedeckung Gattung
total tief tief mittel hoch
Di, 19.02. 19:00 1800 m 8/8 8/8 - - -
Di, 19.02. 13:00 930 m 6/8 4/8 - - -
Di, 19.02. 7:00 1500 m 8/8 7/8 - - -
Di, 19.02. 1:00 7500 m 7/8 0/8 - - -
Mo, 18.02. 19:00 7200 m 7/8 0/8 - - -
Mo, 18.02. 13:00 - 0/8 0/8 - - -
Mo, 18.02. 7:00 - 0/8 0/8 - - -
Mo, 18.02. 1:00 9000 m 8/8 0/8 - - -
Ortszeit Bedeckungsgrad in Achtel und Wolkenuntergrenze
Di, 19.02. 19:30 2(1350m) 8(1500m)
Di, 19.02. 19:20 2(1350m) 8(1500m)
Di, 19.02. 19:10 2(1320m) 3(1500m) 8(1800m)
Di, 19.02. 19:00 8(1800m) 8(1500m)
Di, 19.02. 18:50 8(1800m)
Di, 19.02. 18:40 8(1800m)
Di, 19.02. 18:30 7(1800m)
Di, 19.02. 18:00 7(1800m)
Di, 19.02. 17:30 7(1800m)
Di, 19.02. 17:00 3(1470m) 6(1800m)
Di, 19.02. 16:30 1(1440m) 4(1500m)
Ortszeit Luftdruck NN (hPa) Tendenz (hPa in 3 Std.)
Di, 19.02. 19:00 1020 + 1,3
Di, 19.02. 13:00 1018 + 0,3
Di, 19.02. 7:00 1017 + 0,4
Di, 19.02. 1:00 1017 - 0,3
Mo, 18.02. 19:00 1017 - 1,1
Mo, 18.02. 13:00 1019 - 1,8
Mo, 18.02. 7:00 1022 - 0,3
Mo, 18.02. 1:00 1023 0,0
Ortszeit Luftdruck NN (hPa) Tendenz (hPa in 3 Std.)
Di, 19.02. 19:30 1020 + 1,4
Di, 19.02. 19:20 1020 keine Meldung
Di, 19.02. 19:10 1020 keine Meldung
Di, 19.02. 19:00 1020 + 1,3
Di, 19.02. 18:50 1020 keine Meldung
Di, 19.02. 18:40 1019 keine Meldung
Di, 19.02. 18:30 1019 + 1,1
Di, 19.02. 18:00 1019 + 0,9
Di, 19.02. 17:30 1019 + 0,8
Di, 19.02. 17:00 1018 + 0,6
Di, 19.02. 16:30 1018 + 0,2
Ortszeit Schneehöhe (cm)
Di, 19.02. 19:00 0
Di, 19.02. 13:00 0
Di, 19.02. 7:00 0
Di, 19.02. 1:00 0
Mo, 18.02. 19:00 0
Mo, 18.02. 13:00 0
Mo, 18.02. 7:00 0
Mo, 18.02. 1:00 0
Ortszeit Schneehöhe (cm)
Di, 19.02. 19:30 0
Di, 19.02. 19:20 0
Di, 19.02. 19:10 0
Di, 19.02. 19:00 0
Di, 19.02. 18:50 0
Di, 19.02. 18:40 0
Di, 19.02. 18:30 0
Di, 19.02. 18:00 0
Di, 19.02. 17:30 0
Di, 19.02. 17:00 0
Di, 19.02. 16:30 0
Link zu dieser Seite / Seite empfehlen

Das Wetter in ...